sensor_id;sensor_type;location;lat;lon;timestamp;P1;durP1;ratioP1;P2;durP2;ratioP2
32321;SDS011;61553;48.994;8.940;2022-12-10T00:02:01;42.47;;;21.33;;
32321;SDS011;61553;48.994;8.940;2022-12-10T00:04:27;41.08;;;21.73;;
32321;SDS011;61553;48.994;8.940;2022-12-10T00:06:53;79.38;;;38.00;;
32321;SDS011;61553;48.994;8.940;2022-12-10T00:09:19;113.28;;;54.58;;
32321;SDS011;61553;48.994;8.940;2022-12-10T00:11:45;96.80;;;42.65;;
32321;SDS011;61553;48.994;8.940;2022-12-10T00:14:11;103.45;;;45.95;;
32321;SDS011;61553;48.994;8.940;2022-12-10T00:16:38;63.00;;;32.10;;
32321;SDS011;61553;48.994;8.940;2022-12-10T00:19:04;54.05;;;25.77;;
32321;SDS011;61553;48.994;8.940;2022-12-10T00:21:30;56.70;;;30.38;;
32321;SDS011;61553;48.994;8.940;2022-12-10T00:23:58;68.68;;;33.78;;
32321;SDS011;61553;48.994;8.940;2022-12-10T00:26:35;64.50;;;28.00;;
32321;SDS011;61553;48.994;8.940;2022-12-10T00:29:02;41.60;;;22.48;;
32321;SDS011;61553;48.994;8.940;2022-12-10T00:31:31;45.67;;;23.05;;
32321;SDS011;61553;48.994;8.940;2022-12-10T00:33:59;35.53;;;19.95;;
32321;SDS011;61553;48.994;8.940;2022-12-10T00:36:30;42.10;;;21.55;;
32321;SDS011;61553;48.994;8.940;2022-12-10T00:38:58;39.63;;;21.17;;
32321;SDS011;61553;48.994;8.940;2022-12-10T00:41:24;40.75;;;22.73;;
32321;SDS011;61553;48.994;8.940;2022-12-10T00:43:49;40.40;;;22.08;;
32321;SDS011;61553;48.994;8.940;2022-12-10T00:46:16;38.83;;;20.48;;
32321;SDS011;61553;48.994;8.940;2022-12-10T00:48:43;37.28;;;20.08;;
32321;SDS011;61553;48.994;8.940;2022-12-10T00:51:10;38.05;;;20.85;;
32321;SDS011;61553;48.994;8.940;2022-12-10T00:53:38;41.30;;;21.20;;
32321;SDS011;61553;48.994;8.940;2022-12-10T00:56:05;40.70;;;20.85;;
32321;SDS011;61553;48.994;8.940;2022-12-10T00:58:33;37.78;;;21.65;;
32321;SDS011;61553;48.994;8.940;2022-12-10T01:01:06;43.97;;;24.60;;
32321;SDS011;61553;48.994;8.940;2022-12-10T01:03:33;33.00;;;19.42;;
32321;SDS011;61553;48.994;8.940;2022-12-10T01:06:07;40.95;;;21.67;;
32321;SDS011;61553;48.994;8.940;2022-12-10T01:08:37;42.30;;;20.88;;
32321;SDS011;61553;48.994;8.940;2022-12-10T01:11:03;48.95;;;22.65;;
32321;SDS011;61553;48.994;8.940;2022-12-10T01:13:29;51.00;;;24.85;;
32321;SDS011;61553;48.994;8.940;2022-12-10T01:15:55;54.63;;;24.55;;
32321;SDS011;61553;48.994;8.940;2022-12-10T01:18:21;40.95;;;21.33;;
32321;SDS011;61553;48.994;8.940;2022-12-10T01:20:46;41.08;;;20.38;;
32321;SDS011;61553;48.994;8.940;2022-12-10T01:23:12;36.55;;;19.60;;
32321;SDS011;61553;48.994;8.940;2022-12-10T01:25:38;36.33;;;20.33;;
32321;SDS011;61553;48.994;8.940;2022-12-10T01:28:03;37.15;;;21.20;;
32321;SDS011;61553;48.994;8.940;2022-12-10T01:30:29;34.60;;;19.63;;
32321;SDS011;61553;48.994;8.940;2022-12-10T01:32:54;39.13;;;20.25;;
32321;SDS011;61553;48.994;8.940;2022-12-10T01:35:20;41.83;;;20.88;;
32321;SDS011;61553;48.994;8.940;2022-12-10T01:37:46;38.95;;;20.73;;
32321;SDS011;61553;48.994;8.940;2022-12-10T01:40:11;39.50;;;21.02;;
32321;SDS011;61553;48.994;8.940;2022-12-10T01:42:37;40.28;;;18.98;;
32321;SDS011;61553;48.994;8.940;2022-12-10T01:45:07;36.55;;;20.17;;
32321;SDS011;61553;48.994;8.940;2022-12-10T01:47:35;41.90;;;21.95;;
32321;SDS011;61553;48.994;8.940;2022-12-10T01:50:01;43.55;;;20.27;;
32321;SDS011;61553;48.994;8.940;2022-12-10T01:52:28;36.20;;;19.85;;
32321;SDS011;61553;48.994;8.940;2022-12-10T01:54:54;38.47;;;20.42;;
32321;SDS011;61553;48.994;8.940;2022-12-10T01:57:20;39.03;;;21.08;;
32321;SDS011;61553;48.994;8.940;2022-12-10T01:59:52;34.42;;;20.15;;
32321;SDS011;61553;48.994;8.940;2022-12-10T02:08:01;40.08;;;19.33;;
32321;SDS011;61553;48.994;8.940;2022-12-10T02:10:50;34.83;;;19.67;;
32321;SDS011;61553;48.994;8.940;2022-12-10T02:13:38;34.97;;;20.00;;
32321;SDS011;61553;48.994;8.940;2022-12-10T02:16:08;36.55;;;19.63;;
32321;SDS011;61553;48.994;8.940;2022-12-10T02:18:55;36.67;;;19.67;;
32321;SDS011;61553;48.994;8.940;2022-12-10T02:21:32;38.50;;;20.42;;
32321;SDS011;61553;48.994;8.940;2022-12-10T02:24:03;39.30;;;20.67;;
32321;SDS011;61553;48.994;8.940;2022-12-10T02:29:13;33.88;;;17.88;;
32321;SDS011;61553;48.994;8.940;2022-12-10T02:31:44;33.88;;;18.80;;
32321;SDS011;61553;48.994;8.940;2022-12-10T02:34:14;29.77;;;17.92;;
32321;SDS011;61553;48.994;8.940;2022-12-10T02:36:43;34.90;;;19.35;;
32321;SDS011;61553;48.994;8.940;2022-12-10T02:39:13;34.10;;;18.80;;
32321;SDS011;61553;48.994;8.940;2022-12-10T02:41:45;35.22;;;18.55;;
32321;SDS011;61553;48.994;8.940;2022-12-10T02:44:15;38.00;;;19.23;;
32321;SDS011;61553;48.994;8.940;2022-12-10T02:46:43;35.78;;;18.58;;
32321;SDS011;61553;48.994;8.940;2022-12-10T02:49:11;31.90;;;17.33;;
32321;SDS011;61553;48.994;8.940;2022-12-10T02:51:38;32.47;;;18.50;;
32321;SDS011;61553;48.994;8.940;2022-12-10T02:54:06;33.63;;;18.27;;
32321;SDS011;61553;48.994;8.940;2022-12-10T02:56:53;36.22;;;18.75;;
32321;SDS011;61553;48.994;8.940;2022-12-10T03:01:54;32.38;;;18.60;;
32321;SDS011;61553;48.994;8.940;2022-12-10T03:04:53;33.83;;;18.52;;
32321;SDS011;61553;48.994;8.940;2022-12-10T03:07:33;38.85;;;19.50;;
32321;SDS011;61553;48.994;8.940;2022-12-10T03:10:03;35.88;;;19.10;;
32321;SDS011;61553;48.994;8.940;2022-12-10T03:12:41;36.90;;;19.25;;
32321;SDS011;61553;48.994;8.940;2022-12-10T03:15:29;35.22;;;20.23;;
32321;SDS011;61553;48.994;8.940;2022-12-10T03:17:58;40.72;;;20.65;;
32321;SDS011;61553;48.994;8.940;2022-12-10T03:20:28;36.63;;;20.08;;
32321;SDS011;61553;48.994;8.940;2022-12-10T03:22:57;33.70;;;18.17;;
32321;SDS011;61553;48.994;8.940;2022-12-10T03:25:24;31.50;;;17.80;;
32321;SDS011;61553;48.994;8.940;2022-12-10T03:27:54;37.88;;;18.98;;
32321;SDS011;61553;48.994;8.940;2022-12-10T03:30:21;34.70;;;18.17;;
32321;SDS011;61553;48.994;8.940;2022-12-10T03:32:48;36.70;;;20.38;;
32321;SDS011;61553;48.994;8.940;2022-12-10T03:35:17;37.17;;;20.77;;
32321;SDS011;61553;48.994;8.940;2022-12-10T03:37:45;35.25;;;19.13;;
32321;SDS011;61553;48.994;8.940;2022-12-10T03:40:11;42.45;;;21.05;;
32321;SDS011;61553;48.994;8.940;2022-12-10T03:42:38;39.55;;;20.00;;
32321;SDS011;61553;48.994;8.940;2022-12-10T03:45:04;41.75;;;21.23;;
32321;SDS011;61553;48.994;8.940;2022-12-10T03:47:30;33.95;;;20.25;;
32321;SDS011;61553;48.994;8.940;2022-12-10T03:49:56;39.58;;;21.40;;
32321;SDS011;61553;48.994;8.940;2022-12-10T03:52:22;48.42;;;21.75;;
32321;SDS011;61553;48.994;8.940;2022-12-10T03:54:48;41.53;;;21.70;;
32321;SDS011;61553;48.994;8.940;2022-12-10T03:57:14;43.80;;;22.33;;
32321;SDS011;61553;48.994;8.940;2022-12-10T03:59:39;47.45;;;24.02;;
32321;SDS011;61553;48.994;8.940;2022-12-10T04:02:05;45.85;;;23.27;;
32321;SDS011;61553;48.994;8.940;2022-12-10T04:04:31;45.38;;;23.13;;
32321;SDS011;61553;48.994;8.940;2022-12-10T04:06:56;43.05;;;22.98;;
32321;SDS011;61553;48.994;8.940;2022-12-10T04:09:22;42.25;;;22.00;;
32321;SDS011;61553;48.994;8.940;2022-12-10T04:11:48;43.33;;;24.02;;
32321;SDS011;61553;48.994;8.940;2022-12-10T04:14:13;40.95;;;22.75;;
32321;SDS011;61553;48.994;8.940;2022-12-10T04:16:58;44.35;;;24.98;;
32321;SDS011;61553;48.994;8.940;2022-12-10T04:19:24;47.72;;;24.77;;
32321;SDS011;61553;48.994;8.940;2022-12-10T04:21:50;49.75;;;27.23;;
32321;SDS011;61553;48.994;8.940;2022-12-10T04:24:35;46.72;;;25.17;;
32321;SDS011;61553;48.994;8.940;2022-12-10T04:27:21;45.35;;;23.50;;
32321;SDS011;61553;48.994;8.940;2022-12-10T04:29:55;40.33;;;23.02;;
32321;SDS011;61553;48.994;8.940;2022-12-10T04:32:22;41.50;;;22.33;;
32321;SDS011;61553;48.994;8.940;2022-12-10T04:34:48;42.63;;;22.27;;
32321;SDS011;61553;48.994;8.940;2022-12-10T04:37:14;41.50;;;21.67;;
32321;SDS011;61553;48.994;8.940;2022-12-10T04:39:40;41.00;;;21.98;;
32321;SDS011;61553;48.994;8.940;2022-12-10T04:42:06;43.03;;;22.52;;
32321;SDS011;61553;48.994;8.940;2022-12-10T04:44:33;42.05;;;22.52;;
32321;SDS011;61553;48.994;8.940;2022-12-10T04:46:59;37.40;;;19.58;;
32321;SDS011;61553;48.994;8.940;2022-12-10T04:49:25;39.33;;;21.65;;
32321;SDS011;61553;48.994;8.940;2022-12-10T04:51:51;40.15;;;22.58;;
32321;SDS011;61553;48.994;8.940;2022-12-10T04:54:18;39.15;;;20.42;;
32321;SDS011;61553;48.994;8.940;2022-12-10T04:56:43;38.28;;;20.45;;
32321;SDS011;61553;48.994;8.940;2022-12-10T04:59:09;40.30;;;22.08;;
32321;SDS011;61553;48.994;8.940;2022-12-10T05:01:35;37.13;;;20.73;;
32321;SDS011;61553;48.994;8.940;2022-12-10T05:04:02;37.83;;;20.38;;
32321;SDS011;61553;48.994;8.940;2022-12-10T05:06:30;36.95;;;20.10;;
32321;SDS011;61553;48.994;8.940;2022-12-10T05:08:56;40.90;;;22.05;;
32321;SDS011;61553;48.994;8.940;2022-12-10T05:11:23;39.80;;;20.63;;
32321;SDS011;61553;48.994;8.940;2022-12-10T05:13:51;38.10;;;20.77;;
32321;SDS011;61553;48.994;8.940;2022-12-10T05:16:18;37.60;;;20.95;;
32321;SDS011;61553;48.994;8.940;2022-12-10T05:18:45;42.30;;;21.42;;
32321;SDS011;61553;48.994;8.940;2022-12-10T05:21:12;40.20;;;20.95;;
32321;SDS011;61553;48.994;8.940;2022-12-10T05:23:40;38.10;;;20.23;;
32321;SDS011;61553;48.994;8.940;2022-12-10T05:26:15;39.72;;;20.77;;
32321;SDS011;61553;48.994;8.940;2022-12-10T05:28:48;42.87;;;22.60;;
32321;SDS011;61553;48.994;8.940;2022-12-10T05:31:18;36.17;;;19.50;;
32321;SDS011;61553;48.994;8.940;2022-12-10T05:33:45;40.33;;;20.73;;
32321;SDS011;61553;48.994;8.940;2022-12-10T05:36:12;36.13;;;20.80;;
32321;SDS011;61553;48.994;8.940;2022-12-10T05:38:39;35.00;;;20.88;;
32321;SDS011;61553;48.994;8.940;2022-12-10T05:41:06;42.20;;;21.73;;
32321;SDS011;61553;48.994;8.940;2022-12-10T05:43:34;37.30;;;20.92;;
32321;SDS011;61553;48.994;8.940;2022-12-10T05:46:03;41.15;;;22.23;;
32321;SDS011;61553;48.994;8.940;2022-12-10T05:48:32;39.17;;;21.05;;
32321;SDS011;61553;48.994;8.940;2022-12-10T05:51:02;46.58;;;23.35;;
32321;SDS011;61553;48.994;8.940;2022-12-10T05:53:32;37.95;;;21.60;;
32321;SDS011;61553;48.994;8.940;2022-12-10T05:55:59;37.47;;;21.00;;
32321;SDS011;61553;48.994;8.940;2022-12-10T05:58:45;40.22;;;21.23;;
32321;SDS011;61553;48.994;8.940;2022-12-10T06:01:13;43.83;;;24.17;;
32321;SDS011;61553;48.994;8.940;2022-12-10T06:03:40;47.47;;;24.52;;
32321;SDS011;61553;48.994;8.940;2022-12-10T06:06:07;46.67;;;24.50;;
32321;SDS011;61553;48.994;8.940;2022-12-10T06:08:33;45.10;;;24.55;;
32321;SDS011;61553;48.994;8.940;2022-12-10T06:11:00;41.80;;;23.20;;
32321;SDS011;61553;48.994;8.940;2022-12-10T06:13:31;41.80;;;24.52;;
32321;SDS011;61553;48.994;8.940;2022-12-10T06:15:56;55.08;;;28.55;;
32321;SDS011;61553;48.994;8.940;2022-12-10T06:18:22;48.25;;;28.00;;
32321;SDS011;61553;48.994;8.940;2022-12-10T06:20:47;41.15;;;23.42;;
32321;SDS011;61553;48.994;8.940;2022-12-10T06:23:13;49.30;;;25.85;;
32321;SDS011;61553;48.994;8.940;2022-12-10T06:25:39;48.90;;;25.50;;
32321;SDS011;61553;48.994;8.940;2022-12-10T06:28:05;47.65;;;25.20;;
32321;SDS011;61553;48.994;8.940;2022-12-10T06:30:32;44.70;;;24.60;;
32321;SDS011;61553;48.994;8.940;2022-12-10T06:32:59;53.08;;;27.38;;
32321;SDS011;61553;48.994;8.940;2022-12-10T06:35:25;52.00;;;26.95;;
32321;SDS011;61553;48.994;8.940;2022-12-10T06:37:51;50.80;;;26.48;;
32321;SDS011;61553;48.994;8.940;2022-12-10T06:40:16;47.20;;;24.88;;
32321;SDS011;61553;48.994;8.940;2022-12-10T06:42:42;43.03;;;23.52;;
32321;SDS011;61553;48.994;8.940;2022-12-10T06:45:08;43.30;;;23.98;;
32321;SDS011;61553;48.994;8.940;2022-12-10T06:47:34;47.33;;;24.80;;
32321;SDS011;61553;48.994;8.940;2022-12-10T06:50:00;43.63;;;24.13;;
32321;SDS011;61553;48.994;8.940;2022-12-10T06:52:25;50.63;;;26.35;;
32321;SDS011;61553;48.994;8.940;2022-12-10T06:54:51;47.58;;;25.45;;
32321;SDS011;61553;48.994;8.940;2022-12-10T06:57:18;40.97;;;22.98;;
32321;SDS011;61553;48.994;8.940;2022-12-10T06:59:44;45.65;;;24.00;;
32321;SDS011;61553;48.994;8.940;2022-12-10T07:02:10;61.28;;;30.42;;
32321;SDS011;61553;48.994;8.940;2022-12-10T07:04:35;44.28;;;23.63;;
32321;SDS011;61553;48.994;8.940;2022-12-10T07:07:01;51.95;;;28.40;;
32321;SDS011;61553;48.994;8.940;2022-12-10T07:09:27;53.55;;;26.88;;
32321;SDS011;61553;48.994;8.940;2022-12-10T07:11:52;46.47;;;23.58;;
32321;SDS011;61553;48.994;8.940;2022-12-10T07:14:19;56.00;;;28.77;;
32321;SDS011;61553;48.994;8.940;2022-12-10T07:16:45;53.13;;;28.42;;
32321;SDS011;61553;48.994;8.940;2022-12-10T07:19:11;56.15;;;27.98;;
32321;SDS011;61553;48.994;8.940;2022-12-10T07:21:38;44.80;;;22.30;;
32321;SDS011;61553;48.994;8.940;2022-12-10T07:24:07;39.80;;;21.67;;
32321;SDS011;61553;48.994;8.940;2022-12-10T07:26:37;40.28;;;20.80;;
32321;SDS011;61553;48.994;8.940;2022-12-10T07:29:05;38.55;;;21.13;;
32321;SDS011;61553;48.994;8.940;2022-12-10T07:31:31;51.88;;;24.55;;
32321;SDS011;61553;48.994;8.940;2022-12-10T07:33:58;63.03;;;30.50;;
32321;SDS011;61553;48.994;8.940;2022-12-10T07:36:24;84.57;;;39.38;;
32321;SDS011;61553;48.994;8.940;2022-12-10T07:38:51;65.75;;;33.83;;
32321;SDS011;61553;48.994;8.940;2022-12-10T07:41:17;58.00;;;32.92;;
32321;SDS011;61553;48.994;8.940;2022-12-10T07:43:44;45.58;;;24.63;;
32321;SDS011;61553;48.994;8.940;2022-12-10T07:46:21;61.97;;;28.98;;
32321;SDS011;61553;48.994;8.940;2022-12-10T07:48:49;72.78;;;33.17;;
32321;SDS011;61553;48.994;8.940;2022-12-10T07:51:15;139.10;;;60.00;;
32321;SDS011;61553;48.994;8.940;2022-12-10T07:53:42;91.95;;;42.05;;
32321;SDS011;61553;48.994;8.940;2022-12-10T07:56:08;47.70;;;24.13;;
32321;SDS011;61553;48.994;8.940;2022-12-10T07:58:35;42.60;;;21.88;;
32321;SDS011;61553;48.994;8.940;2022-12-10T08:01:07;36.13;;;19.17;;
32321;SDS011;61553;48.994;8.940;2022-12-10T08:03:43;43.85;;;22.38;;
32321;SDS011;61553;48.994;8.940;2022-12-10T08:06:10;39.83;;;20.58;;
32321;SDS011;61553;48.994;8.940;2022-12-10T08:08:38;37.38;;;20.23;;
32321;SDS011;61553;48.994;8.940;2022-12-10T08:11:05;39.53;;;20.90;;
32321;SDS011;61553;48.994;8.940;2022-12-10T08:13:32;43.05;;;23.60;;
32321;SDS011;61553;48.994;8.940;2022-12-10T08:16:02;39.85;;;24.73;;
32321;SDS011;61553;48.994;8.940;2022-12-10T08:18:32;42.03;;;23.95;;
32321;SDS011;61553;48.994;8.940;2022-12-10T08:21:02;38.55;;;23.00;;
32321;SDS011;61553;48.994;8.940;2022-12-10T08:23:29;38.70;;;21.45;;
32321;SDS011;61553;48.994;8.940;2022-12-10T08:25:54;46.03;;;23.05;;
32321;SDS011;61553;48.994;8.940;2022-12-10T08:28:20;42.47;;;23.98;;
32321;SDS011;61553;48.994;8.940;2022-12-10T08:30:46;48.47;;;24.65;;
32321;SDS011;61553;48.994;8.940;2022-12-10T08:33:12;42.50;;;22.48;;
32321;SDS011;61553;48.994;8.940;2022-12-10T08:35:38;36.70;;;20.02;;
32321;SDS011;61553;48.994;8.940;2022-12-10T08:38:03;36.97;;;19.98;;
32321;SDS011;61553;48.994;8.940;2022-12-10T08:40:29;40.05;;;20.98;;
32321;SDS011;61553;48.994;8.940;2022-12-10T08:42:55;35.15;;;20.33;;
32321;SDS011;61553;48.994;8.940;2022-12-10T08:45:20;38.70;;;21.35;;
32321;SDS011;61553;48.994;8.940;2022-12-10T08:47:46;35.63;;;19.88;;
32321;SDS011;61553;48.994;8.940;2022-12-10T08:50:11;34.88;;;18.95;;
32321;SDS011;61553;48.994;8.940;2022-12-10T08:52:37;32.53;;;18.00;;
32321;SDS011;61553;48.994;8.940;2022-12-10T08:55:03;33.85;;;18.58;;
32321;SDS011;61553;48.994;8.940;2022-12-10T08:57:29;36.50;;;18.55;;
32321;SDS011;61553;48.994;8.940;2022-12-10T08:59:54;30.85;;;17.52;;
32321;SDS011;61553;48.994;8.940;2022-12-10T09:02:20;31.25;;;18.27;;
32321;SDS011;61553;48.994;8.940;2022-12-10T09:04:46;35.72;;;19.42;;
32321;SDS011;61553;48.994;8.940;2022-12-10T09:07:12;63.30;;;31.60;;
32321;SDS011;61553;48.994;8.940;2022-12-10T09:09:38;34.53;;;19.13;;
32321;SDS011;61553;48.994;8.940;2022-12-10T09:12:03;40.00;;;18.65;;
32321;SDS011;61553;48.994;8.940;2022-12-10T09:14:29;33.65;;;18.85;;
32321;SDS011;61553;48.994;8.940;2022-12-10T09:16:55;32.35;;;17.27;;
32321;SDS011;61553;48.994;8.940;2022-12-10T09:19:20;30.13;;;17.52;;
32321;SDS011;61553;48.994;8.940;2022-12-10T09:21:46;34.28;;;17.88;;
32321;SDS011;61553;48.994;8.940;2022-12-10T09:24:12;35.90;;;20.38;;
32321;SDS011;61553;48.994;8.940;2022-12-10T09:26:38;42.97;;;24.02;;
32321;SDS011;61553;48.994;8.940;2022-12-10T09:29:04;48.15;;;24.98;;
32321;SDS011;61553;48.994;8.940;2022-12-10T09:31:29;78.15;;;38.28;;
32321;SDS011;61553;48.994;8.940;2022-12-10T09:33:55;38.35;;;22.95;;
32321;SDS011;61553;48.994;8.940;2022-12-10T09:36:21;63.40;;;32.95;;
32321;SDS011;61553;48.994;8.940;2022-12-10T09:38:47;48.60;;;27.52;;
32321;SDS011;61553;48.994;8.940;2022-12-10T09:46:31;90.53;;;44.40;;
32321;SDS011;61553;48.994;8.940;2022-12-10T09:49:41;35.30;;;19.70;;
32321;SDS011;61553;48.994;8.940;2022-12-10T09:52:31;30.23;;;17.50;;
32321;SDS011;61553;48.994;8.940;2022-12-10T09:57:37;27.73;;;14.80;;
32321;SDS011;61553;48.994;8.940;2022-12-10T10:00:49;29.83;;;16.77;;
32321;SDS011;61553;48.994;8.940;2022-12-10T10:02:58;28.70;;;16.27;;
32321;SDS011;61553;48.994;8.940;2022-12-10T10:07:56;34.63;;;18.95;;
32321;SDS011;61553;48.994;8.940;2022-12-10T10:13:12;30.75;;;18.15;;
32321;SDS011;61553;48.994;8.940;2022-12-10T10:15:57;34.60;;;18.83;;
32321;SDS011;61553;48.994;8.940;2022-12-10T10:18:57;30.17;;;16.08;;
32321;SDS011;61553;48.994;8.940;2022-12-10T10:23:56;24.88;;;15.00;;
32321;SDS011;61553;48.994;8.940;2022-12-10T10:26:24;24.17;;;13.63;;
32321;SDS011;61553;48.994;8.940;2022-12-10T10:28:52;24.35;;;13.68;;
32321;SDS011;61553;48.994;8.940;2022-12-10T10:31:24;25.55;;;14.07;;
32321;SDS011;61553;48.994;8.940;2022-12-10T10:33:56;20.48;;;12.90;;
32321;SDS011;61553;48.994;8.940;2022-12-10T10:36:27;24.02;;;13.68;;
32321;SDS011;61553;48.994;8.940;2022-12-10T10:38:55;23.02;;;12.85;;
32321;SDS011;61553;48.994;8.940;2022-12-10T10:41:22;20.30;;;11.70;;
32321;SDS011;61553;48.994;8.940;2022-12-10T10:43:51;23.55;;;12.85;;
32321;SDS011;61553;48.994;8.940;2022-12-10T10:46:26;22.25;;;13.68;;
32321;SDS011;61553;48.994;8.940;2022-12-10T10:48:52;21.13;;;13.32;;
32321;SDS011;61553;48.994;8.940;2022-12-10T10:52:01;20.15;;;12.35;;
32321;SDS011;61553;48.994;8.940;2022-12-10T10:54:33;21.40;;;12.93;;
32321;SDS011;61553;48.994;8.940;2022-12-10T10:57:03;23.05;;;12.88;;
32321;SDS011;61553;48.994;8.940;2022-12-10T10:59:40;19.15;;;12.52;;
32321;SDS011;61553;48.994;8.940;2022-12-10T11:04:45;25.90;;;15.75;;
32321;SDS011;61553;48.994;8.940;2022-12-10T11:07:22;26.05;;;16.30;;
32321;SDS011;61553;48.994;8.940;2022-12-10T11:09:52;23.73;;;15.32;;
32321;SDS011;61553;48.994;8.940;2022-12-10T11:12:24;23.70;;;14.30;;
32321;SDS011;61553;48.994;8.940;2022-12-10T11:14:54;24.70;;;15.18;;
32321;SDS011;61553;48.994;8.940;2022-12-10T11:17:21;25.00;;;14.93;;
32321;SDS011;61553;48.994;8.940;2022-12-10T11:19:57;22.60;;;14.20;;
32321;SDS011;61553;48.994;8.940;2022-12-10T11:22:41;32.97;;;19.08;;
32321;SDS011;61553;48.994;8.940;2022-12-10T11:25:14;29.67;;;17.48;;
32321;SDS011;61553;48.994;8.940;2022-12-10T11:30:25;26.48;;;16.00;;
32321;SDS011;61553;48.994;8.940;2022-12-10T11:51:25;36.22;;;18.52;;
32321;SDS011;61553;48.994;8.940;2022-12-10T11:56:24;30.70;;;18.00;;
32321;SDS011;61553;48.994;8.940;2022-12-10T12:06:53;30.27;;;16.45;;
32321;SDS011;61553;48.994;8.940;2022-12-10T12:17:25;25.88;;;15.70;;
32321;SDS011;61553;48.994;8.940;2022-12-10T12:20:02;26.30;;;15.30;;
32321;SDS011;61553;48.994;8.940;2022-12-10T12:22:53;26.40;;;14.75;;
32321;SDS011;61553;48.994;8.940;2022-12-10T12:25:27;27.00;;;14.43;;
32321;SDS011;61553;48.994;8.940;2022-12-10T12:28:10;28.23;;;16.23;;
32321;SDS011;61553;48.994;8.940;2022-12-10T12:30:43;27.48;;;16.10;;
32321;SDS011;61553;48.994;8.940;2022-12-10T12:36:15;29.47;;;16.83;;
32321;SDS011;61553;48.994;8.940;2022-12-10T12:42:26;27.70;;;15.90;;
32321;SDS011;61553;48.994;8.940;2022-12-10T12:49:53;26.15;;;15.50;;
32321;SDS011;61553;48.994;8.940;2022-12-10T12:52:39;34.03;;;17.33;;
32321;SDS011;61553;48.994;8.940;2022-12-10T12:55:17;32.03;;;16.75;;
32321;SDS011;61553;48.994;8.940;2022-12-10T12:58:01;28.20;;;16.02;;
32321;SDS011;61553;48.994;8.940;2022-12-10T13:00:46;29.77;;;16.60;;
32321;SDS011;61553;48.994;8.940;2022-12-10T13:08:49;37.63;;;19.90;;
32321;SDS011;61553;48.994;8.940;2022-12-10T13:11:34;33.53;;;18.88;;
32321;SDS011;61553;48.994;8.940;2022-12-10T13:35:16;35.78;;;19.90;;
32321;SDS011;61553;48.994;8.940;2022-12-10T13:37:37;33.22;;;18.15;;
32321;SDS011;61553;48.994;8.940;2022-12-10T13:46:50;35.67;;;18.67;;
32321;SDS011;61553;48.994;8.940;2022-12-10T13:49:18;33.97;;;18.60;;
32321;SDS011;61553;48.994;8.940;2022-12-10T14:02:52;34.75;;;18.55;;
32321;SDS011;61553;48.994;8.940;2022-12-10T14:08:04;34.65;;;17.35;;
32321;SDS011;61553;48.994;8.940;2022-12-10T14:10:34;35.25;;;17.65;;
32321;SDS011;61553;48.994;8.940;2022-12-10T14:13:01;32.33;;;17.25;;
32321;SDS011;61553;48.994;8.940;2022-12-10T14:15:29;38.47;;;19.58;;
32321;SDS011;61553;48.994;8.940;2022-12-10T14:18:00;34.67;;;18.83;;
32321;SDS011;61553;48.994;8.940;2022-12-10T14:20:29;32.97;;;17.80;;
32321;SDS011;61553;48.994;8.940;2022-12-10T14:22:57;27.88;;;16.45;;
32321;SDS011;61553;48.994;8.940;2022-12-10T14:25:48;31.58;;;17.52;;
32321;SDS011;61553;48.994;8.940;2022-12-10T14:28:16;32.05;;;17.75;;
32321;SDS011;61553;48.994;8.940;2022-12-10T14:30:44;33.50;;;17.48;;
32321;SDS011;61553;48.994;8.940;2022-12-10T14:33:12;29.00;;;15.93;;
32321;SDS011;61553;48.994;8.940;2022-12-10T14:35:49;30.30;;;16.02;;
32321;SDS011;61553;48.994;8.940;2022-12-10T14:38:29;32.88;;;17.00;;
32321;SDS011;61553;48.994;8.940;2022-12-10T14:40:57;30.98;;;16.50;;
32321;SDS011;61553;48.994;8.940;2022-12-10T14:43:25;34.47;;;17.20;;
32321;SDS011;61553;48.994;8.940;2022-12-10T14:46:02;31.25;;;16.80;;
32321;SDS011;61553;48.994;8.940;2022-12-10T14:48:29;34.30;;;18.00;;
32321;SDS011;61553;48.994;8.940;2022-12-10T14:51:04;31.52;;;17.58;;
32321;SDS011;61553;48.994;8.940;2022-12-10T14:53:37;30.55;;;16.70;;
32321;SDS011;61553;48.994;8.940;2022-12-10T14:56:03;35.30;;;17.50;;
32321;SDS011;61553;48.994;8.940;2022-12-10T14:58:44;31.17;;;16.40;;
32321;SDS011;61553;48.994;8.940;2022-12-10T15:01:20;54.85;;;25.92;;
32321;SDS011;61553;48.994;8.940;2022-12-10T15:03:55;49.65;;;21.73;;
32321;SDS011;61553;48.994;8.940;2022-12-10T15:06:23;38.13;;;18.50;;
32321;SDS011;61553;48.994;8.940;2022-12-10T15:08:49;36.22;;;19.25;;
32321;SDS011;61553;48.994;8.940;2022-12-10T15:11:20;36.63;;;18.88;;
32321;SDS011;61553;48.994;8.940;2022-12-10T15:13:50;38.92;;;19.45;;
32321;SDS011;61553;48.994;8.940;2022-12-10T15:18:54;36.03;;;19.45;;
32321;SDS011;61553;48.994;8.940;2022-12-10T15:21:22;35.72;;;17.88;;
32321;SDS011;61553;48.994;8.940;2022-12-10T15:23:50;31.98;;;17.10;;
32321;SDS011;61553;48.994;8.940;2022-12-10T15:26:32;33.70;;;18.35;;
32321;SDS011;61553;48.994;8.940;2022-12-10T15:32:00;36.83;;;17.95;;
32321;SDS011;61553;48.994;8.940;2022-12-10T15:34:29;40.03;;;20.65;;
32321;SDS011;61553;48.994;8.940;2022-12-10T15:37:02;33.10;;;17.52;;
32321;SDS011;61553;48.994;8.940;2022-12-10T15:39:30;35.20;;;18.00;;
32321;SDS011;61553;48.994;8.940;2022-12-10T15:42:00;32.70;;;17.65;;
32321;SDS011;61553;48.994;8.940;2022-12-10T15:49:38;31.50;;;17.48;;
32321;SDS011;61553;48.994;8.940;2022-12-10T15:52:04;30.00;;;16.00;;
32321;SDS011;61553;48.994;8.940;2022-12-10T15:54:33;30.63;;;16.63;;
32321;SDS011;61553;48.994;8.940;2022-12-10T15:57:00;37.33;;;17.13;;
32321;SDS011;61553;48.994;8.940;2022-12-10T15:59:40;30.98;;;16.58;;
32321;SDS011;61553;48.994;8.940;2022-12-10T16:04:51;32.78;;;16.33;;
32321;SDS011;61553;48.994;8.940;2022-12-10T16:07:17;32.63;;;17.67;;
32321;SDS011;61553;48.994;8.940;2022-12-10T16:09:43;34.30;;;18.55;;
32321;SDS011;61553;48.994;8.940;2022-12-10T16:12:10;162.00;;;71.35;;
32321;SDS011;61553;48.994;8.940;2022-12-10T16:14:39;39.40;;;21.35;;
32321;SDS011;61553;48.994;8.940;2022-12-10T16:17:09;32.30;;;16.98;;
32321;SDS011;61553;48.994;8.940;2022-12-10T16:19:34;33.70;;;17.17;;
32321;SDS011;61553;48.994;8.940;2022-12-10T16:22:01;31.75;;;17.38;;
32321;SDS011;61553;48.994;8.940;2022-12-10T16:24:27;35.97;;;20.27;;
32321;SDS011;61553;48.994;8.940;2022-12-10T16:26:52;31.38;;;17.02;;
32321;SDS011;61553;48.994;8.940;2022-12-10T16:29:18;30.75;;;16.35;;
32321;SDS011;61553;48.994;8.940;2022-12-10T16:31:46;30.63;;;16.02;;
32321;SDS011;61553;48.994;8.940;2022-12-10T16:34:11;31.40;;;16.50;;
32321;SDS011;61553;48.994;8.940;2022-12-10T16:36:37;31.75;;;16.00;;
32321;SDS011;61553;48.994;8.940;2022-12-10T16:39:03;34.95;;;17.95;;
32321;SDS011;61553;48.994;8.940;2022-12-10T16:41:30;34.50;;;18.60;;
32321;SDS011;61553;48.994;8.940;2022-12-10T16:43:56;32.35;;;17.48;;
32321;SDS011;61553;48.994;8.940;2022-12-10T16:46:21;31.88;;;16.30;;
32321;SDS011;61553;48.994;8.940;2022-12-10T16:48:47;33.70;;;17.50;;
32321;SDS011;61553;48.994;8.940;2022-12-10T16:51:23;28.48;;;15.48;;
32321;SDS011;61553;48.994;8.940;2022-12-10T16:53:53;30.13;;;16.75;;
32321;SDS011;61553;48.994;8.940;2022-12-10T16:56:20;31.75;;;16.63;;